createdAt,value
2023-01-09T00:00:20.843Z,84.63
2023-01-09T00:02:50.367Z,86.53
2023-01-09T00:05:21.261Z,89.37
2023-01-09T00:07:50.345Z,84.50
2023-01-09T00:10:19.548Z,83.70
2023-01-09T00:12:50.224Z,91.03
2023-01-09T00:15:19.705Z,103.57
2023-01-09T00:17:50.149Z,78.10
2023-01-09T00:20:19.262Z,59.70
2023-01-09T00:22:48.419Z,45.20
2023-01-09T00:25:17.656Z,61.57
2023-01-09T00:27:46.753Z,46.40
2023-01-09T00:30:18.267Z,48.80
2023-01-09T00:32:47.264Z,64.03
2023-01-09T00:35:18.862Z,59.70
2023-01-09T00:37:48.202Z,56.93
2023-01-09T00:40:18.599Z,65.30
2023-01-09T00:42:50.912Z,61.87
2023-01-09T00:45:29.581Z,55.33
2023-01-09T00:48:03.808Z,46.83
2023-01-09T00:50:34.685Z,83.17
2023-01-09T00:53:09.341Z,60.20
2023-01-09T00:55:39.410Z,69.90
2023-01-09T00:58:09.250Z,56.77
2023-01-09T01:00:39.967Z,51.23
2023-01-09T01:03:09.236Z,52.93
2023-01-09T01:05:55.958Z,57.83
2023-01-09T01:08:25.250Z,47.30
2023-01-09T01:10:54.289Z,31.30
2023-01-09T01:13:23.285Z,58.87
2023-01-09T01:15:53.976Z,50.07
2023-01-09T01:18:23.489Z,59.13
2023-01-09T01:20:52.695Z,57.37
2023-01-09T01:23:21.646Z,55.67
2023-01-09T01:25:50.750Z,58.87
2023-01-09T01:28:19.734Z,58.73
2023-01-09T01:30:49.045Z,61.47
2023-01-09T01:33:19.531Z,70.53
2023-01-09T01:35:48.781Z,56.63
2023-01-09T01:38:17.836Z,47.97
2023-01-09T01:40:46.812Z,53.93
2023-01-09T01:43:15.769Z,56.80
2023-01-09T01:45:44.823Z,60.00
2023-01-09T01:48:17.410Z,62.67
2023-01-09T01:50:49.816Z,62.73
2023-01-09T01:53:23.377Z,52.97
2023-01-09T01:56:05.048Z,47.30
2023-01-09T01:58:35.732Z,40.70
2023-01-09T02:01:05.912Z,39.93
2023-01-09T02:03:35.751Z,51.47
2023-01-09T02:06:07.337Z,40.00
2023-01-09T02:08:36.840Z,39.67
2023-01-09T02:11:06.709Z,39.53
2023-01-09T02:13:38.893Z,47.87
2023-01-09T02:16:28.083Z,54.20
2023-01-09T02:19:08.009Z,59.80
2023-01-09T02:21:49.347Z,46.97
2023-01-09T02:24:48.277Z,56.80
2023-01-09T02:27:35.145Z,51.50
2023-01-09T02:30:36.441Z,60.47
2023-01-09T02:33:26.477Z,80.83
2023-01-09T02:36:10.202Z,71.73
2023-01-09T02:38:48.679Z,62.27
2023-01-09T02:41:22.379Z,76.83
2023-01-09T02:44:23.352Z,62.33
2023-01-09T02:47:03.203Z,76.23
2023-01-09T02:49:35.273Z,88.07
2023-01-09T02:52:24.040Z,122.17
2023-01-09T02:55:18.006Z,102.57
2023-01-09T02:57:58.413Z,84.53
2023-01-09T03:00:38.723Z,76.27
2023-01-09T03:03:14.279Z,61.70
2023-01-09T03:05:48.939Z,48.17
2023-01-09T03:08:21.506Z,36.33
2023-01-09T03:10:54.269Z,37.73
2023-01-09T03:13:26.648Z,37.70
2023-01-09T03:15:58.156Z,41.60
2023-01-09T03:18:30.028Z,37.90
2023-01-09T03:21:01.356Z,47.57
2023-01-09T03:23:46.322Z,49.37
2023-01-09T03:26:15.611Z,54.13
2023-01-09T03:28:45.388Z,60.27
2023-01-09T03:31:14.705Z,54.90
2023-01-09T03:33:44.104Z,56.17
2023-01-09T03:36:16.431Z,57.42
2023-01-09T03:38:45.568Z,54.73
2023-01-09T03:41:14.434Z,58.75
2023-01-09T03:43:43.433Z,62.88
2023-01-09T03:46:12.634Z,78.97
2023-01-09T03:48:41.753Z,68.10
2023-01-09T03:51:11.174Z,90.93
2023-01-09T03:53:41.867Z,85.63
2023-01-09T03:56:29.538Z,96.00
2023-01-09T03:58:58.541Z,84.73
2023-01-09T04:01:27.810Z,108.93
2023-01-09T04:03:56.880Z,108.90
2023-01-09T04:06:25.990Z,113.63
2023-01-09T04:09:15.488Z,113.00
2023-01-09T04:11:44.557Z,97.60
2023-01-09T04:14:13.891Z,83.88
2023-01-09T04:16:43.062Z,99.70
2023-01-09T04:19:12.136Z,62.50
2023-01-09T04:21:41.200Z,41.30
2023-01-09T04:24:10.483Z,50.55
2023-01-09T04:26:41.046Z,61.23
2023-01-09T04:29:10.408Z,92.68
2023-01-09T04:31:39.539Z,69.95
2023-01-09T04:34:08.659Z,60.28
2023-01-09T04:36:37.598Z,48.55
2023-01-09T04:39:06.600Z,64.63
2023-01-09T04:41:58.370Z,59.38
2023-01-09T04:44:28.925Z,64.57
2023-01-09T04:46:59.580Z,60.77
2023-01-09T04:49:32.182Z,65.90
2023-01-09T04:52:01.234Z,68.28
2023-01-09T04:54:30.303Z,63.97
2023-01-09T04:56:59.516Z,65.65
2023-01-09T04:59:29.967Z,52.63
2023-01-09T05:01:59.731Z,56.35
2023-01-09T05:04:29.002Z,40.78
2023-01-09T05:06:58.047Z,36.03
2023-01-09T05:09:27.045Z,39.83
2023-01-09T05:11:56.280Z,37.83
2023-01-09T05:14:25.298Z,32.65
2023-01-09T05:16:55.764Z,40.10
2023-01-09T05:19:24.769Z,56.10
2023-01-09T05:21:53.705Z,46.93
2023-01-09T05:24:22.976Z,46.83
2023-01-09T05:26:52.042Z,55.07
2023-01-09T05:29:21.157Z,54.30
2023-01-09T05:31:50.261Z,70.17
2023-01-09T05:34:20.961Z,61.80
2023-01-09T05:36:50.401Z,68.97
2023-01-09T05:39:19.616Z,65.97
2023-01-09T05:41:48.644Z,51.05
2023-01-09T05:44:18.088Z,60.87
2023-01-09T05:46:47.156Z,63.03
2023-01-09T05:49:16.297Z,86.80
2023-01-09T05:51:46.605Z,72.03
2023-01-09T05:54:15.530Z,85.88
2023-01-09T05:56:44.667Z,86.60
2023-01-09T05:59:13.639Z,77.40
2023-01-09T06:01:42.821Z,75.23
2023-01-09T06:04:30.241Z,97.72
2023-01-09T06:07:00.764Z,99.13
2023-01-09T06:09:30.975Z,88.43
2023-01-09T06:12:00.133Z,101.57
2023-01-09T06:14:30.028Z,99.33
2023-01-09T06:16:59.052Z,108.13
2023-01-09T06:19:28.028Z,95.30
2023-01-09T06:21:57.417Z,146.07
2023-01-09T06:24:27.967Z,91.93
2023-01-09T06:26:57.378Z,80.47
2023-01-09T06:29:26.408Z,97.90
2023-01-09T06:31:55.520Z,69.33
2023-01-09T06:34:24.645Z,83.40
2023-01-09T06:36:53.677Z,85.63
2023-01-09T06:39:22.849Z,79.37
2023-01-09T06:41:53.497Z,101.07
2023-01-09T06:44:22.499Z,95.10
2023-01-09T06:46:51.488Z,86.93
2023-01-09T06:49:23.865Z,78.90
2023-01-09T06:51:53.189Z,104.93
2023-01-09T06:54:22.670Z,162.73
2023-01-09T06:56:53.066Z,106.97
2023-01-09T06:59:22.412Z,155.87
2023-01-09T07:01:51.607Z,107.03
2023-01-09T07:04:22.248Z,123.07
2023-01-09T07:06:51.630Z,123.20
2023-01-09T07:09:20.590Z,136.30
2023-01-09T07:11:49.541Z,122.60
2023-01-09T07:14:19.915Z,136.73
2023-01-09T07:16:49.146Z,107.03
2023-01-09T07:19:18.197Z,67.57
2023-01-09T07:21:47.266Z,107.37
2023-01-09T07:24:34.957Z,78.77
2023-01-09T07:27:04.257Z,118.20
2023-01-09T07:29:34.976Z,79.43
2023-01-09T07:32:04.137Z,88.07
2023-01-09T07:34:33.168Z,70.20
2023-01-09T07:37:02.300Z,97.27
2023-01-09T07:39:31.401Z,101.33
2023-01-09T07:42:00.590Z,94.93
2023-01-09T07:44:31.917Z,67.67
2023-01-09T07:47:02.591Z,97.27
2023-01-09T07:49:50.103Z,78.57
2023-01-09T07:52:19.151Z,57.50
2023-01-09T07:54:48.174Z,63.60
2023-01-09T07:57:17.068Z,73.90
2023-01-09T07:59:46.116Z,86.77
2023-01-09T08:02:35.517Z,65.03
2023-01-09T08:05:04.688Z,81.77
2023-01-09T08:07:33.858Z,69.40
2023-01-09T08:10:02.933Z,100.20
2023-01-09T08:12:32.077Z,63.07
2023-01-09T08:15:01.437Z,57.43
2023-01-09T08:17:30.398Z,60.77
2023-01-09T08:20:00.895Z,58.43
2023-01-09T08:22:29.970Z,99.80
2023-01-09T08:24:59.039Z,78.57
2023-01-09T08:27:28.152Z,54.37
2023-01-09T08:29:57.177Z,62.03
2023-01-09T08:32:26.258Z,56.47
2023-01-09T08:34:55.357Z,51.43
2023-01-09T08:37:25.888Z,56.47
2023-01-09T08:39:55.000Z,84.43
2023-01-09T08:42:41.333Z,78.50
2023-01-09T08:45:29.639Z,97.23
2023-01-09T08:47:59.164Z,84.57
2023-01-09T08:50:28.776Z,65.33
2023-01-09T08:52:59.358Z,60.97
2023-01-09T08:55:28.670Z,55.17
2023-01-09T08:57:58.112Z,57.47
2023-01-09T09:00:27.502Z,50.40
2023-01-09T09:02:58.189Z,41.17
2023-01-09T09:05:29.018Z,50.57
2023-01-09T09:08:00.488Z,47.33
2023-01-09T09:10:30.814Z,47.40
2023-01-09T09:13:01.750Z,37.33
2023-01-09T09:15:31.307Z,50.83
2023-01-09T09:18:02.159Z,46.77
2023-01-09T09:20:32.720Z,49.37
2023-01-09T09:23:03.885Z,49.50
2023-01-09T09:25:33.842Z,49.00
2023-01-09T09:28:02.894Z,67.40
2023-01-09T09:30:31.950Z,118.83
2023-01-09T09:33:01.060Z,53.53
2023-01-09T09:35:31.327Z,52.70
2023-01-09T09:38:05.361Z,85.70
2023-01-09T09:40:58.163Z,48.53
2023-01-09T09:44:20.636Z,37.43
2023-01-09T09:46:56.580Z,53.90
2023-01-09T09:49:32.962Z,84.27
2023-01-09T09:52:10.729Z,36.67
2023-01-09T09:54:46.206Z,37.10
2023-01-09T09:57:18.958Z,50.13
2023-01-09T09:59:51.795Z,36.27
2023-01-09T10:02:30.316Z,52.80
2023-01-09T10:05:06.300Z,51.17
2023-01-09T10:07:42.330Z,39.43
2023-01-09T10:10:21.742Z,66.63
2023-01-09T10:13:27.044Z,69.87
2023-01-09T10:16:09.135Z,37.77
2023-01-09T10:18:46.877Z,76.00
2023-01-09T10:21:25.757Z,49.40
2023-01-09T10:24:08.374Z,66.70
2023-01-09T10:26:43.817Z,55.33
2023-01-09T10:29:46.704Z,62.03
2023-01-09T10:32:47.058Z,40.43
2023-01-09T10:35:46.909Z,66.40
2023-01-09T10:38:24.389Z,55.00
2023-01-09T10:41:01.842Z,87.23
2023-01-09T10:43:41.043Z,66.07
2023-01-09T10:46:16.442Z,73.30
2023-01-09T10:48:52.670Z,62.70
2023-01-09T10:51:24.190Z,50.00
2023-01-09T10:53:56.194Z,60.23
2023-01-09T10:56:27.767Z,66.87
2023-01-09T10:58:58.980Z,52.70
2023-01-09T11:01:30.028Z,44.10
2023-01-09T11:04:01.419Z,81.67
2023-01-09T11:06:38.784Z,46.07
2023-01-09T11:09:08.182Z,38.17
2023-01-09T11:11:38.784Z,46.43
2023-01-09T11:14:17.823Z,61.40
2023-01-09T11:16:57.321Z,37.23
2023-01-09T11:19:28.501Z,82.13
2023-01-09T11:22:09.532Z,51.43
2023-01-09T11:24:39.471Z,46.60
2023-01-09T11:27:26.108Z,43.70
2023-01-09T11:30:28.087Z,57.90
2023-01-09T11:32:58.727Z,35.57
2023-01-09T11:35:34.094Z,19.90
2023-01-09T11:38:07.987Z,65.93
2023-01-09T11:40:49.662Z,50.13
2023-01-09T11:43:35.540Z,58.33
2023-01-09T11:46:07.990Z,58.57
2023-01-09T11:48:43.704Z,49.20
2023-01-09T11:51:24.278Z,42.77
2023-01-09T11:54:25.535Z,29.30
2023-01-09T11:56:55.228Z,45.53
2023-01-09T11:59:27.986Z,67.60
2023-01-09T12:02:51.986Z,45.83
2023-01-09T12:05:33.419Z,55.13
2023-01-09T12:08:30.830Z,32.10
2023-01-09T12:11:14.180Z,36.13
2023-01-09T12:14:04.169Z,47.60
2023-01-09T12:16:39.818Z,45.77
2023-01-09T12:19:34.711Z,42.13
2023-01-09T12:22:12.403Z,44.90
2023-01-09T12:25:06.884Z,46.23
2023-01-09T12:27:49.912Z,57.00
2023-01-09T12:30:49.694Z,49.10
2023-01-09T12:33:31.961Z,53.57
2023-01-09T12:36:31.803Z,41.57
2023-01-09T12:39:12.850Z,28.80
2023-01-09T12:41:56.983Z,63.07
2023-01-09T12:44:46.524Z,52.03
2023-01-09T12:47:45.348Z,50.87
2023-01-09T12:50:51.344Z,67.50
2023-01-09T12:53:26.236Z,33.47
2023-01-09T12:56:01.974Z,46.10
2023-01-09T12:58:37.969Z,43.03
2023-01-09T13:01:10.930Z,51.93
2023-01-09T13:03:45.019Z,56.07
2023-01-09T13:06:18.724Z,58.83
2023-01-09T13:09:22.096Z,88.83
2023-01-09T13:12:00.579Z,35.20
2023-01-09T13:14:40.693Z,36.37
2023-01-09T13:17:17.425Z,76.53
2023-01-09T13:19:46.743Z,52.47
2023-01-09T13:22:18.289Z,61.80
2023-01-09T13:25:07.452Z,34.53
2023-01-09T13:27:40.784Z,30.33
2023-01-09T13:30:21.560Z,29.30
2023-01-09T13:33:02.417Z,25.50
2023-01-09T13:35:32.159Z,39.97
2023-01-09T13:38:01.516Z,25.10
2023-01-09T13:40:33.222Z,22.33
2023-01-09T13:43:05.793Z,25.80
2023-01-09T13:45:37.261Z,27.37
2023-01-09T13:48:29.476Z,25.87
2023-01-09T13:51:31.431Z,40.20
2023-01-09T13:54:00.468Z,28.50
2023-01-09T13:56:31.109Z,59.47
2023-01-09T13:59:09.438Z,48.03
2023-01-09T14:01:57.037Z,23.93
2023-01-09T14:04:42.898Z,32.03
2023-01-09T14:07:23.130Z,31.27
2023-01-09T14:09:56.733Z,38.93
2023-01-09T14:12:28.950Z,44.90
2023-01-09T14:15:02.312Z,56.77
2023-01-09T14:17:37.654Z,64.67
2023-01-09T14:20:09.266Z,74.37
2023-01-09T14:22:50.318Z,50.00
2023-01-09T14:25:45.866Z,98.87
2023-01-09T14:28:27.341Z,94.07
2023-01-09T14:31:09.089Z,99.43
2023-01-09T14:33:38.535Z,57.73
2023-01-09T14:36:14.260Z,56.80
2023-01-09T14:38:46.089Z,54.87
2023-01-09T14:41:40.503Z,71.30
2023-01-09T14:44:27.771Z,61.67
2023-01-09T14:47:00.201Z,81.67
2023-01-09T14:49:36.024Z,93.67
2023-01-09T14:52:14.741Z,74.17
2023-01-09T14:54:45.325Z,75.07
2023-01-09T14:57:28.464Z,96.67
2023-01-09T15:00:00.910Z,122.60
2023-01-09T15:02:32.990Z,153.00
2023-01-09T15:05:09.527Z,114.70
2023-01-09T15:07:44.538Z,127.77
2023-01-09T15:10:20.615Z,111.13
2023-01-09T15:12:51.822Z,102.53
2023-01-09T15:15:24.479Z,125.03
2023-01-09T15:17:57.386Z,108.87
2023-01-09T15:20:29.098Z,179.13
2023-01-09T15:23:00.949Z,154.00
2023-01-09T15:25:40.409Z,120.67
2023-01-09T15:28:27.338Z,115.87
2023-01-09T15:31:04.444Z,86.07
2023-01-09T15:33:34.149Z,96.27
2023-01-09T15:36:08.645Z,97.10
2023-01-09T15:38:40.199Z,97.33
2023-01-09T15:41:12.663Z,89.70
2023-01-09T15:43:44.141Z,104.67
2023-01-09T15:46:17.722Z,102.33
2023-01-09T15:48:46.842Z,130.67
2023-01-09T15:51:18.753Z,156.57
2023-01-09T15:53:50.421Z,153.27
2023-01-09T15:56:24.319Z,134.27
2023-01-09T15:58:55.009Z,137.30
2023-01-09T16:01:31.743Z,129.43
2023-01-09T16:04:07.522Z,151.10
2023-01-09T16:06:38.769Z,100.10
2023-01-09T16:09:18.166Z,88.10
2023-01-09T16:11:52.441Z,81.67
2023-01-09T16:14:24.513Z,93.23
2023-01-09T16:17:00.314Z,117.43
2023-01-09T16:19:34.671Z,64.07
2023-01-09T16:22:24.272Z,73.27
2023-01-09T16:24:55.065Z,57.40
2023-01-09T16:27:26.504Z,140.33
2023-01-09T16:29:58.412Z,57.00
2023-01-09T16:32:31.350Z,80.30
2023-01-09T16:35:05.534Z,107.73
2023-01-09T16:37:36.389Z,123.63
2023-01-09T16:40:36.379Z,116.23
2023-01-09T16:43:08.753Z,122.60
2023-01-09T16:45:39.501Z,103.73
2023-01-09T16:48:17.931Z,88.27
2023-01-09T16:50:47.364Z,84.50
2023-01-09T16:53:18.911Z,115.10
2023-01-09T16:55:48.248Z,81.33
2023-01-09T16:58:19.710Z,99.40
2023-01-09T17:00:49.346Z,85.10
2023-01-09T17:03:20.761Z,89.13
2023-01-09T17:05:51.759Z,115.33
2023-01-09T17:08:26.468Z,87.27
2023-01-09T17:10:57.075Z,90.07
2023-01-09T17:13:26.838Z,78.93
2023-01-09T17:15:57.186Z,90.60
2023-01-09T17:18:29.796Z,89.87
2023-01-09T17:21:00.159Z,89.40
2023-01-09T17:23:29.253Z,114.47
2023-01-09T17:26:17.374Z,123.13
2023-01-09T17:28:49.609Z,107.63
2023-01-09T17:31:19.525Z,93.17
2023-01-09T17:33:50.421Z,101.20
2023-01-09T17:36:26.427Z,87.27
2023-01-09T17:38:56.223Z,85.13
2023-01-09T17:41:26.236Z,68.03
2023-01-09T17:43:55.529Z,65.90
2023-01-09T17:46:28.915Z,72.20
2023-01-09T17:49:00.285Z,61.00
2023-01-09T17:51:30.699Z,72.47
2023-01-09T17:54:00.398Z,72.87
2023-01-09T17:56:33.614Z,57.40
2023-01-09T17:59:04.663Z,71.57
2023-01-09T18:01:34.691Z,77.00
2023-01-09T18:04:05.169Z,61.57
2023-01-09T18:06:34.418Z,57.40
2023-01-09T18:09:03.512Z,62.80
2023-01-09T18:11:32.633Z,74.50
2023-01-09T18:14:01.886Z,60.10
2023-01-09T18:16:31.136Z,67.03
2023-01-09T18:19:02.293Z,71.33
2023-01-09T18:21:33.007Z,70.00
2023-01-09T18:24:04.004Z,93.77
2023-01-09T18:26:33.124Z,97.97
2023-01-09T18:29:02.360Z,118.17
2023-01-09T18:31:31.996Z,95.73
2023-01-09T18:34:05.393Z,103.83
2023-01-09T18:36:36.379Z,114.43
2023-01-09T18:39:09.632Z,119.07
2023-01-09T18:41:38.752Z,123.60
2023-01-09T18:44:07.747Z,115.27
2023-01-09T18:46:39.531Z,107.73
2023-01-09T18:49:08.798Z,122.73
2023-01-09T18:51:39.519Z,105.70
2023-01-09T18:54:08.965Z,98.23
2023-01-09T18:56:38.054Z,104.43
2023-01-09T18:59:08.084Z,103.07
2023-01-09T19:01:37.554Z,120.03
2023-01-09T19:04:06.923Z,120.10
2023-01-09T19:06:37.021Z,88.10
2023-01-09T19:09:07.592Z,107.63
2023-01-09T19:11:36.980Z,107.53
2023-01-09T19:14:06.649Z,118.13
2023-01-09T19:16:35.708Z,104.47
2023-01-09T19:19:06.758Z,89.97
2023-01-09T19:21:36.243Z,111.77
2023-01-09T19:24:07.280Z,109.47
2023-01-09T19:26:36.419Z,127.60
2023-01-09T19:29:05.461Z,110.07
2023-01-09T19:31:34.799Z,92.83
2023-01-09T19:34:04.142Z,131.97
2023-01-09T19:36:33.215Z,112.50
2023-01-09T19:39:04.629Z,87.00
2023-01-09T19:41:35.372Z,139.33
2023-01-09T19:44:04.501Z,99.77
2023-01-09T19:46:35.712Z,114.23
2023-01-09T19:49:06.370Z,94.63
2023-01-09T19:51:35.772Z,94.70
2023-01-09T19:56:35.766Z,68.57
2023-01-09T19:59:06.351Z,73.67
2023-01-09T20:01:37.459Z,75.63
2023-01-09T20:04:13.552Z,78.50
2023-01-09T20:06:44.205Z,83.43
2023-01-09T20:09:14.643Z,94.30
2023-01-09T20:11:46.074Z,90.67
2023-01-09T20:14:16.192Z,89.17
2023-01-09T20:16:45.942Z,85.57
2023-01-09T20:19:15.700Z,99.23
2023-01-09T20:21:46.880Z,92.47
2023-01-09T20:24:18.049Z,86.33
2023-01-09T20:26:48.665Z,92.47
2023-01-09T20:29:17.852Z,84.27
2023-01-09T20:31:46.892Z,76.97
2023-01-09T20:34:16.886Z,60.63
2023-01-09T20:36:46.520Z,88.67
2023-01-09T20:39:15.772Z,104.67
2023-01-09T20:41:44.801Z,85.30
2023-01-09T20:44:16.217Z,64.87
2023-01-09T20:46:48.251Z,75.77
2023-01-09T20:49:19.674Z,74.57
2023-01-09T20:51:50.049Z,85.20
2023-01-09T20:54:21.458Z,83.07
2023-01-09T20:56:50.763Z,102.77
2023-01-09T20:59:22.483Z,93.83
2023-01-09T21:01:52.178Z,94.13
2023-01-09T21:04:21.347Z,80.23
2023-01-09T21:06:50.666Z,71.63
2023-01-09T21:09:20.561Z,94.50
2023-01-09T21:11:49.744Z,87.17
2023-01-09T21:14:19.221Z,87.87
2023-01-09T21:16:54.827Z,78.93
2023-01-09T21:19:24.745Z,82.67
2023-01-09T21:21:53.887Z,100.63
2023-01-09T21:24:22.808Z,95.13
2023-01-09T21:26:51.911Z,75.07
2023-01-09T21:29:20.827Z,63.57
2023-01-09T21:31:51.465Z,65.33
2023-01-09T21:34:21.126Z,38.20
2023-01-09T21:36:50.671Z,37.07
2023-01-09T21:39:21.155Z,42.93
2023-01-09T21:42:08.024Z,42.17
2023-01-09T21:45:12.889Z,40.80
2023-01-09T21:47:43.401Z,45.33
2023-01-09T21:50:13.098Z,54.57
2023-01-09T21:52:42.209Z,65.23
2023-01-09T21:55:11.634Z,47.00
2023-01-09T21:57:40.680Z,46.00
2023-01-09T22:00:11.021Z,51.90
2023-01-09T22:02:45.606Z,59.43
2023-01-09T22:05:14.644Z,66.33
2023-01-09T22:07:43.667Z,70.70
2023-01-09T22:10:13.584Z,71.43
2023-01-09T22:13:03.020Z,74.87
2023-01-09T22:15:32.086Z,55.80
2023-01-09T22:18:02.409Z,55.43
2023-01-09T22:20:31.790Z,61.30
2023-01-09T22:23:01.357Z,59.07
2023-01-09T22:25:30.411Z,71.50
2023-01-09T22:27:59.502Z,64.33
2023-01-09T22:30:30.132Z,78.70
2023-01-09T22:33:00.725Z,73.87
2023-01-09T22:35:31.139Z,93.93
2023-01-09T22:38:00.249Z,103.30
2023-01-09T22:40:30.143Z,59.63
2023-01-09T22:42:59.365Z,46.60
2023-01-09T22:45:29.950Z,48.33
2023-01-09T22:47:59.426Z,55.57
2023-01-09T22:50:28.511Z,60.27
2023-01-09T22:52:58.863Z,42.83
2023-01-09T22:55:27.942Z,39.60
2023-01-09T22:57:57.307Z,39.47
2023-01-09T23:00:26.953Z,52.17
2023-01-09T23:02:56.362Z,43.37
2023-01-09T23:05:25.572Z,53.40
2023-01-09T23:07:54.597Z,58.80
2023-01-09T23:10:25.232Z,84.30
2023-01-09T23:12:54.666Z,93.17
2023-01-09T23:15:23.761Z,74.83
2023-01-09T23:17:52.881Z,92.23
2023-01-09T23:20:21.798Z,90.43
2023-01-09T23:22:50.740Z,98.03
2023-01-09T23:25:20.111Z,108.73
2023-01-09T23:27:50.629Z,100.10
2023-01-09T23:30:20.951Z,95.20
2023-01-09T23:32:50.239Z,96.93
2023-01-09T23:35:19.320Z,113.93
2023-01-09T23:37:48.505Z,117.67
2023-01-09T23:40:18.113Z,76.30
2023-01-09T23:43:04.486Z,67.13
2023-01-09T23:45:35.373Z,94.87
2023-01-09T23:48:04.913Z,64.77
2023-01-09T23:50:34.181Z,48.67
2023-01-09T23:53:04.397Z,59.20
2023-01-09T23:55:33.694Z,55.37
2023-01-09T23:58:03.724Z,62.80
